Blue Hill, Arkansas
Current Conditions -  °F | °C
As of 9:58 PM on Saturday 22 Nov 2014 (Local Time) from KLRF Reporting Station
Broken Clouds Broken Clouds  
Wind Chill: 58°   Ceiling: 16000
Heat Index: 58°   Visibility: 10mi
Dew Point: 52°   Wind: 5mph
Humidity: 81%   Direction: 100°E
Pressure: 29.92"   Gusts: NA
Location:  34.868°N, 92.3217°W
Report Text: KLRF 230358Z AUTO 10004KT 10SM BKN160 14/11 A2992 RMK AO2 SLP134 T01420110
Loading
Personal Weather Stations






























Interactive Weather Map New forecast layout! Learn more

10-Day Weather Forecast

Advertisements
Track Severe Weather on mobile